Terminal Aerodrome Forecast
Issued by NWS

Home | Current Version | Previous Version | Text Only | Print | Product List | Glossary On
Versions: 1 2 3 4 5 6 7 8 9 10 11 12 13
000
FTUS42 KFFC 031120
TAFRYY
TAF
KRYY 031120Z 0312/0412 VRB03KT P6SM FEW040 SCT070 BKN180
     FM031500 32004KT P6SM SCT030 SCT070 BKN150
     FM031800 31005KT P6SM BKN050
      TEMPO 0319/0323 -SHRA
     FM040000 00000KT P6SM SCT060 SCT150=

USA.gov is the U.S. government's official web portal to all federal, state and local government web resources and services.